Montello, WI (53949)

7:54 AM CST on January 22, 2018 (GMT -0600)
Grand Valley Campground | | Change Station

Elev 781 ft 43.69 °N, 89.17 °W | Updated 34 seconds ago

Rain
Rain
34.2 °F
Feels Like 31 °F
N
4.0
Wind Variable Wind from ESE

Today
High -- | Low -- °F
--% Chance of Precip.
Yesterday
High -- | Low -- °F
Precip. -- in
Pressure 29.70 in
Visibility 5.0 miles
Clouds Overcast 700 ft
Windchill 31 °F
Dew Point 32 °F
Humidity 95%
Rainfall 0.53 in
Snow Depth Not available.
7:23 AM 4:54 PM
Waxing Crescent, 26% visible
SPECI KY50 221310Z AUTO 05017G24KT 5SM -RA BR OVC007 01/00 A2970 RMK AO2 PK WND 04027/1259 P0002
Pressure 29.70 in
Visibility 5.0 miles
Clouds Overcast 700 ft
Windchill 31 °F
Dew Point 32 °F
Humidity 95%
Rainfall 0.53 in
Snow Depth Not available.
7:23 AM 4:54 PM
Waxing Crescent, 26% visible
SPECI KY50 221310Z AUTO 05017G24KT 5SM -RA BR OVC007 01/00 A2970 RMK AO2 PK WND 04027/1259 P0002

Get Severe Weather Alerts

Thanks for signing up!

Be on the lookout for a verification email in your inbox.

You'll start receiving the daily forecast at 6 AM.

×

10-Day Weather Forecast

Almanac

Astronomy

Jan. 22, 2018 Rise Set
Actual Time
Civil Twilight
Nautical Twilight
Astronomical Twilight
Moon
Length of Visible Light
Length of Day
Tomorrow will be .
, % of the Moon is Illuminated

Today's Extremes

State Highs State Lows

Community

WunderPhotos

Category 6

Welcome to Category 6. This is the collective home for Weather Underground's featured writeups by Dr. Jeff Masters (right), Bob Henson (left), Chris Burt, and other regular contributors.

Nearby

Air Quality

  Air Quality AQ Index Pollutant
Not available.

Snow Depth

Station Depth Elevation

Earthquake Activity

City Distance Mag. Time & Date
Minimum magnitude displayed is 2.5.

Coastal Water Temperatures

Place Temperature

Stations

Nearby Weather Stations

Station Location Temp. Windchill Dew Point Humidity Wind Precip. Elev Updated Type
                   

Watches & Warnings

There are currently no watches in effect.